ENTC/TOS METAR and TAF weather

Enter ICAO airport designator
Station Type Date Time Source
ENTC METAR 2022/08/13 12:50 UTC NOAA

ENTC 131250Z 26004KT 9999 VCSH FEW031 BKN042 11/08 Q1015 TEMPO 20014KT RMK WIND 2600FT 20023KT


Station Type Date Time Source
ENTC Decoded METAR 2022/08/13 12:50 UTC NOAA

Tromso / Langnes, Norway (ENTC) 69-41N 018-55E 10M
Aug 13, 2022 - 08:50 AM EDT / 2022.08.13 1250 UTC
Wind: from the W (260 degrees) at 5 MPH (4 KT):0
Visibility: greater than 7 mile(s):0
Sky conditions: mostly cloudy
Weather: showers in the vicinity
Temperature: 51 F (11 C)
Dew Point: 46 F (8 C)
Relative Humidity: 81%
Pressure (altimeter): 29.97 in. Hg (1015 hPa)
ob: ENTC 131250Z 26004KT 9999 VCSH FEW031 BKN042 11/08 Q1015 TEMPO 20014KT RMK WIND 2600FT 20023KT
cycle: 13

Station Type Date Time Source
ENTC TAF 2022/08/13 12:58 UTC NOAA

TAF ENTC 131100Z 1312/1412 21012KT 9999 -SHRA FEW015 BKN025
TEMPO 1312/1314 BKN014
TEMPO 1319/1406 23015G25KT

Example: see airport list